createdAt,value
2022-07-25T00:00:34.160Z,57.28
2022-07-25T00:03:02.708Z,57.80
2022-07-25T00:05:37.605Z,57.74
2022-07-25T00:08:06.671Z,57.95
2022-07-25T00:10:34.712Z,58.19
2022-07-25T00:13:02.847Z,57.89
2022-07-25T00:15:31.128Z,58.57
2022-07-25T00:17:59.159Z,58.31
2022-07-25T00:20:27.270Z,58.42
2022-07-25T00:22:56.682Z,59.05
2022-07-25T00:25:24.723Z,59.42
2022-07-25T00:27:53.020Z,58.89
2022-07-25T00:30:21.114Z,59.87
2022-07-25T00:32:49.239Z,59.91
2022-07-25T00:35:17.293Z,60.21
2022-07-25T00:37:45.371Z,59.89
2022-07-25T00:40:15.113Z,60.01
2022-07-25T00:42:43.159Z,60.24
2022-07-25T00:45:11.922Z,60.24
2022-07-25T00:47:39.945Z,59.55
2022-07-25T00:50:09.182Z,59.39
2022-07-25T00:52:37.470Z,59.36
2022-07-25T00:55:06.444Z,59.80
2022-07-25T00:57:36.046Z,59.52
2022-07-25T01:00:07.120Z,60.24
2022-07-25T01:02:35.365Z,60.23
2022-07-25T01:05:03.694Z,60.13
2022-07-25T01:07:32.091Z,60.05
2022-07-25T01:10:00.610Z,60.24
2022-07-25T01:12:28.984Z,60.10
2022-07-25T01:14:58.520Z,60.37
2022-07-25T01:17:26.613Z,60.58
2022-07-25T01:19:54.638Z,60.94
2022-07-25T01:22:23.987Z,60.85
2022-07-25T01:24:51.994Z,60.92
2022-07-25T01:27:20.083Z,61.61
2022-07-25T01:29:48.107Z,61.14
2022-07-25T01:32:16.148Z,61.28
2022-07-25T01:34:44.164Z,61.39
2022-07-25T01:37:12.220Z,60.71
2022-07-25T01:39:41.599Z,61.51
2022-07-25T01:42:09.718Z,61.53
2022-07-25T01:44:37.729Z,61.39
2022-07-25T01:47:06.169Z,61.52
2022-07-25T01:49:34.763Z,61.55
2022-07-25T01:52:02.821Z,61.29
2022-07-25T01:54:30.900Z,61.47
2022-07-25T01:57:01.398Z,61.36
2022-07-25T01:59:29.803Z,61.13
2022-07-25T02:01:57.976Z,61.83
2022-07-25T02:04:26.117Z,61.07
2022-07-25T02:06:54.157Z,61.40
2022-07-25T02:09:22.260Z,61.57
2022-07-25T02:11:50.340Z,62.38
2022-07-25T02:14:19.840Z,62.47
2022-07-25T02:16:47.950Z,62.65
2022-07-25T02:19:16.098Z,62.34
2022-07-25T02:21:44.372Z,63.29
2022-07-25T02:24:12.541Z,63.04
2022-07-25T02:26:40.583Z,63.44
2022-07-25T02:29:08.871Z,63.38
2022-07-25T02:31:38.555Z,63.28
2022-07-25T02:34:07.140Z,63.30
2022-07-25T02:36:35.447Z,63.49
2022-07-25T02:39:03.647Z,63.64
2022-07-25T02:41:56.477Z,63.68
2022-07-25T02:44:24.625Z,63.92
2022-07-25T02:46:54.017Z,63.60
2022-07-25T02:49:22.300Z,64.03
2022-07-25T02:51:50.468Z,63.87
2022-07-25T02:54:20.118Z,64.05
2022-07-25T02:56:48.186Z,64.20
2022-07-25T02:59:16.314Z,64.85
2022-07-25T03:01:44.479Z,64.28
2022-07-25T03:04:14.031Z,65.16
2022-07-25T03:06:44.663Z,64.99
2022-07-25T03:09:12.776Z,64.88
2022-07-25T03:11:40.803Z,64.48
2022-07-25T03:14:09.803Z,65.01
2022-07-25T03:16:38.310Z,64.98
2022-07-25T03:19:10.299Z,65.15
2022-07-25T03:21:40.020Z,65.11
2022-07-25T03:24:08.886Z,65.36
2022-07-25T03:26:37.242Z,65.18
2022-07-25T03:29:05.411Z,65.16
2022-07-25T03:31:34.593Z,66.54
2022-07-25T03:34:03.191Z,68.91
2022-07-25T03:36:31.499Z,68.38
2022-07-25T03:39:01.203Z,71.10
2022-07-25T03:41:33.652Z,71.33
2022-07-25T03:44:01.720Z,69.90
2022-07-25T03:46:29.949Z,72.24
2022-07-25T03:48:58.185Z,73.23
2022-07-25T03:51:26.347Z,72.87
2022-07-25T03:54:03.828Z,73.75
2022-07-25T03:56:43.665Z,72.97
2022-07-25T03:59:13.794Z,73.07
2022-07-25T04:01:43.142Z,73.77
2022-07-25T04:04:11.801Z,73.95
2022-07-25T04:06:40.864Z,74.43
2022-07-25T04:09:10.222Z,72.82
2022-07-25T04:11:40.519Z,73.12
2022-07-25T04:14:09.184Z,72.39
2022-07-25T04:16:37.714Z,72.20
2022-07-25T04:19:08.732Z,72.40
2022-07-25T04:21:36.886Z,72.38
2022-07-25T04:24:05.449Z,71.80
2022-07-25T04:26:33.923Z,72.14
2022-07-25T04:29:04.035Z,73.60
2022-07-25T04:31:32.192Z,72.58
2022-07-25T04:34:01.119Z,72.69
2022-07-25T04:36:29.858Z,72.35
2022-07-25T04:38:57.967Z,73.20
2022-07-25T04:41:26.052Z,72.31
2022-07-25T04:43:54.163Z,72.09
2022-07-25T04:46:24.099Z,70.94
2022-07-25T04:48:52.433Z,71.97
2022-07-25T04:51:20.512Z,72.21
2022-07-25T04:53:48.578Z,74.06
2022-07-25T04:56:16.887Z,72.97
2022-07-25T04:58:45.142Z,71.88
2022-07-25T05:01:13.447Z,72.11
2022-07-25T05:03:49.833Z,72.93
2022-07-25T05:06:19.576Z,73.51
2022-07-25T05:08:47.972Z,73.54
2022-07-25T05:11:16.060Z,74.70
2022-07-25T05:13:44.131Z,74.91
2022-07-25T05:16:12.247Z,73.75
2022-07-25T05:18:40.536Z,73.13
2022-07-25T05:21:12.833Z,73.54
2022-07-25T05:23:41.007Z,73.75
2022-07-25T05:26:09.379Z,73.92
2022-07-25T05:28:37.509Z,73.58
2022-07-25T05:31:05.825Z,73.58
2022-07-25T05:33:35.199Z,73.22
2022-07-25T05:36:05.199Z,72.59
2022-07-25T05:38:34.716Z,72.87
2022-07-25T05:41:02.763Z,71.54
2022-07-25T05:43:30.874Z,71.49
2022-07-25T05:46:02.206Z,70.84
2022-07-25T05:48:30.360Z,70.63
2022-07-25T05:50:59.454Z,70.42
2022-07-25T05:53:27.538Z,71.17
2022-07-25T05:55:57.041Z,69.89
2022-07-25T05:58:29.741Z,70.52
2022-07-25T06:00:58.727Z,70.30
2022-07-25T06:03:26.941Z,70.25
2022-07-25T06:05:56.511Z,69.73
2022-07-25T06:08:24.928Z,70.21
2022-07-25T06:10:53.100Z,70.02
2022-07-25T06:13:23.619Z,69.50
2022-07-25T06:15:51.882Z,69.78
2022-07-25T06:18:20.126Z,69.60
2022-07-25T06:20:48.871Z,69.61
2022-07-25T06:23:17.055Z,69.46
2022-07-25T06:25:49.944Z,69.16
2022-07-25T06:28:19.022Z,69.09
2022-07-25T06:30:49.677Z,69.14
2022-07-25T06:33:17.790Z,69.08
2022-07-25T06:35:45.885Z,68.81
2022-07-25T06:38:14.005Z,68.23
2022-07-25T06:40:42.061Z,69.14
2022-07-25T06:43:10.427Z,69.46
2022-07-25T06:45:38.491Z,69.62
2022-07-25T06:48:08.437Z,69.61
2022-07-25T06:50:36.549Z,69.13
2022-07-25T06:53:04.691Z,69.18
2022-07-25T06:55:33.006Z,68.56
2022-07-25T06:58:01.099Z,68.41
2022-07-25T07:00:29.574Z,68.51
2022-07-25T07:03:01.404Z,68.03
2022-07-25T07:05:32.829Z,68.77
2022-07-25T07:08:01.756Z,67.58
2022-07-25T07:10:29.938Z,68.83
2022-07-25T07:13:07.842Z,67.15
2022-07-25T07:15:36.794Z,67.24
2022-07-25T07:18:06.370Z,66.95
2022-07-25T07:20:36.385Z,66.87
2022-07-25T07:23:04.513Z,67.06
2022-07-25T07:25:34.688Z,66.36
2022-07-25T07:28:03.244Z,65.83
2022-07-25T07:30:58.320Z,66.02
2022-07-25T07:33:19.664Z,64.75
2022-07-25T07:35:49.141Z,63.85
2022-07-25T07:38:18.024Z,65.81
2022-07-25T07:40:46.103Z,64.95
2022-07-25T07:43:14.191Z,64.71
2022-07-25T07:45:43.159Z,64.42
2022-07-25T07:48:11.330Z,64.91
2022-07-25T07:50:39.404Z,63.60
2022-07-25T07:53:08.828Z,63.55
2022-07-25T07:55:45.340Z,62.86
2022-07-25T07:58:15.730Z,63.75
2022-07-25T08:00:44.370Z,63.25
2022-07-25T08:03:12.527Z,62.02
2022-07-25T08:05:43.223Z,61.81
2022-07-25T08:08:14.010Z,61.51
2022-07-25T08:10:44.223Z,61.93
2022-07-25T08:13:16.636Z,62.54
2022-07-25T08:15:46.669Z,61.80
2022-07-25T08:18:17.654Z,61.56
2022-07-25T08:20:46.392Z,61.92
2022-07-25T08:23:15.902Z,61.20
2022-07-25T08:25:44.351Z,60.41
2022-07-25T08:28:12.821Z,60.23
2022-07-25T08:30:42.170Z,59.66
2022-07-25T08:33:13.414Z,60.25
2022-07-25T08:35:42.048Z,59.31
2022-07-25T08:38:11.644Z,58.69
2022-07-25T08:40:41.340Z,58.54
2022-07-25T08:43:12.892Z,58.55
2022-07-25T08:45:45.913Z,58.43
2022-07-25T08:48:14.478Z,58.28
2022-07-25T08:50:42.635Z,57.83
2022-07-25T08:53:32.038Z,56.64
2022-07-25T08:56:00.235Z,57.29
2022-07-25T08:58:28.344Z,57.39
2022-07-25T09:00:58.249Z,56.70
2022-07-25T09:03:28.843Z,56.65
2022-07-25T09:05:56.951Z,56.14
2022-07-25T09:08:25.087Z,56.75
2022-07-25T09:10:54.267Z,56.26
2022-07-25T09:13:24.142Z,55.53
2022-07-25T09:15:53.838Z,55.46
2022-07-25T09:18:24.855Z,52.99
2022-07-25T09:20:54.736Z,53.90
2022-07-25T09:23:30.580Z,54.24
2022-07-25T09:26:05.885Z,54.15
2022-07-25T09:28:42.376Z,55.21
2022-07-25T09:31:10.777Z,51.93
2022-07-25T09:33:47.713Z,53.37
2022-07-25T09:36:16.100Z,54.36
2022-07-25T09:38:53.605Z,53.38
2022-07-25T09:41:21.824Z,53.01
2022-07-25T09:43:51.278Z,53.71
2022-07-25T09:46:19.644Z,52.46
2022-07-25T09:48:58.220Z,50.90
2022-07-25T09:51:26.758Z,51.10
2022-07-25T09:53:54.794Z,51.13
2022-07-25T09:56:48.082Z,51.42
2022-07-25T09:59:17.579Z,53.57
2022-07-25T10:01:50.869Z,50.08
2022-07-25T10:04:23.278Z,50.01
2022-07-25T10:06:56.150Z,49.98
2022-07-25T10:09:24.852Z,50.33
2022-07-25T10:12:06.259Z,49.26
2022-07-25T10:14:36.194Z,49.06
2022-07-25T10:17:04.791Z,51.22
2022-07-25T10:19:49.191Z,47.87
2022-07-25T10:22:34.285Z,47.86
2022-07-25T10:25:14.993Z,48.09
2022-07-25T10:28:10.115Z,47.49
2022-07-25T10:30:41.485Z,46.78
2022-07-25T10:33:13.388Z,47.20
2022-07-25T10:35:43.903Z,47.57
2022-07-25T10:38:12.180Z,45.21
2022-07-25T10:40:42.441Z,43.96
2022-07-25T10:43:13.644Z,45.96
2022-07-25T10:45:51.119Z,43.60
2022-07-25T10:48:23.246Z,44.10
2022-07-25T10:50:55.924Z,43.93
2022-07-25T10:53:39.421Z,43.74
2022-07-25T10:56:09.801Z,43.87
2022-07-25T10:58:45.406Z,42.76
2022-07-25T11:01:15.715Z,42.73
2022-07-25T11:03:45.671Z,41.87
2022-07-25T11:06:15.193Z,42.57
2022-07-25T11:08:43.922Z,44.08
2022-07-25T11:11:12.856Z,42.32
2022-07-25T11:13:41.358Z,41.53
2022-07-25T11:16:10.732Z,40.98
2022-07-25T11:18:41.639Z,38.93
2022-07-25T11:21:10.448Z,39.74
2022-07-25T11:23:38.508Z,37.71
2022-07-25T11:26:08.406Z,38.02
2022-07-25T11:28:41.019Z,37.62
2022-07-25T11:31:09.123Z,38.31
2022-07-25T11:33:38.747Z,36.20
2022-07-25T11:36:10.718Z,39.16
2022-07-25T11:38:39.297Z,38.26
2022-07-25T11:41:07.904Z,39.40
2022-07-25T11:43:35.968Z,38.45
2022-07-25T11:46:06.667Z,37.76
2022-07-25T11:48:37.062Z,36.13
2022-07-25T11:51:18.280Z,36.51
2022-07-25T11:53:49.737Z,35.81
2022-07-25T11:56:41.264Z,34.26
2022-07-25T11:59:08.728Z,32.32
2022-07-25T12:01:38.750Z,34.90
2022-07-25T12:04:14.539Z,34.27
2022-07-25T12:06:44.625Z,32.61
2022-07-25T12:09:19.072Z,35.62
2022-07-25T12:11:48.839Z,33.67
2022-07-25T12:14:17.182Z,33.86
2022-07-25T12:16:45.285Z,33.96
2022-07-25T12:19:20.436Z,33.35
2022-07-25T12:21:49.884Z,34.87
2022-07-25T12:24:17.996Z,34.54
2022-07-25T12:26:46.113Z,30.50
2022-07-25T12:29:38.977Z,32.29
2022-07-25T12:32:07.775Z,33.01
2022-07-25T12:34:35.871Z,33.79
2022-07-25T12:37:05.307Z,32.69
2022-07-25T12:39:33.608Z,32.71
2022-07-25T12:42:01.655Z,32.39
2022-07-25T12:44:29.877Z,28.94
2022-07-25T12:46:57.990Z,30.21
2022-07-25T12:49:26.147Z,28.93
2022-07-25T12:51:58.058Z,30.51
2022-07-25T12:54:27.760Z,30.02
2022-07-25T12:56:55.904Z,29.64
2022-07-25T12:59:24.283Z,28.83
2022-07-25T13:01:52.500Z,28.51
2022-07-25T13:04:20.683Z,29.07
2022-07-25T13:06:48.797Z,29.58
2022-07-25T13:09:16.999Z,29.56
2022-07-25T13:11:46.423Z,28.84
2022-07-25T13:14:16.085Z,28.58
2022-07-25T13:16:44.347Z,29.90
2022-07-25T13:19:12.568Z,28.41
2022-07-25T13:21:40.679Z,28.21
2022-07-25T13:24:09.101Z,28.49
2022-07-25T13:26:37.955Z,30.43
2022-07-25T13:29:09.585Z,27.78
2022-07-25T13:31:38.578Z,28.13
2022-07-25T13:34:07.113Z,28.63
2022-07-25T13:36:35.968Z,28.24
2022-07-25T13:39:04.793Z,27.29
2022-07-25T13:41:33.500Z,30.06
2022-07-25T13:44:01.608Z,29.48
2022-07-25T13:46:31.091Z,28.41
2022-07-25T13:48:59.389Z,27.03
2022-07-25T13:51:27.629Z,26.13
2022-07-25T13:53:55.916Z,26.85
2022-07-25T13:56:23.999Z,26.48
2022-07-25T13:58:52.225Z,25.10
2022-07-25T14:01:20.394Z,29.33
2022-07-25T14:03:49.990Z,26.38
2022-07-25T14:06:18.079Z,26.04
2022-07-25T14:08:46.166Z,25.42
2022-07-25T14:11:14.628Z,27.34
2022-07-25T14:13:43.542Z,23.90
2022-07-25T14:16:11.814Z,26.40
2022-07-25T14:18:39.972Z,27.22
2022-07-25T14:21:09.421Z,26.36
2022-07-25T14:23:37.560Z,25.64
2022-07-25T14:26:05.746Z,25.95
2022-07-25T14:28:33.911Z,22.56
2022-07-25T14:31:01.968Z,22.29
2022-07-25T14:33:30.033Z,23.18
2022-07-25T14:35:58.081Z,21.50
2022-07-25T14:38:27.607Z,20.94
2022-07-25T14:40:55.636Z,23.27
2022-07-25T14:43:23.726Z,23.01
2022-07-25T14:45:51.808Z,21.43
2022-07-25T14:48:19.999Z,21.87
2022-07-25T14:50:48.161Z,22.63
2022-07-25T14:53:16.302Z,22.36
2022-07-25T14:55:45.768Z,21.18
2022-07-25T14:58:15.472Z,21.30
2022-07-25T15:00:43.872Z,19.87
2022-07-25T15:03:11.970Z,22.55
2022-07-25T15:05:40.053Z,20.53
2022-07-25T15:08:08.328Z,21.00
2022-07-25T15:10:36.472Z,21.09
2022-07-25T15:13:30.035Z,20.96
2022-07-25T15:15:54.015Z,22.46
2022-07-25T15:18:22.176Z,21.97
2022-07-25T15:20:51.898Z,20.33
2022-07-25T15:23:21.374Z,19.49
2022-07-25T15:26:04.909Z,23.20
2022-07-25T15:28:35.657Z,23.43
2022-07-25T15:31:03.798Z,24.19
2022-07-25T15:33:31.899Z,18.82
2022-07-25T15:36:00.281Z,21.29
2022-07-25T15:38:28.998Z,18.77
2022-07-25T15:40:57.561Z,17.88
2022-07-25T15:43:25.745Z,21.05
2022-07-25T15:45:55.172Z,21.55
2022-07-25T15:48:23.679Z,20.75
2022-07-25T15:50:52.576Z,17.76
2022-07-25T15:53:20.680Z,20.12
2022-07-25T15:55:48.843Z,20.49
2022-07-25T15:58:17.002Z,19.85
2022-07-25T16:00:45.259Z,21.51
2022-07-25T16:03:14.902Z,19.59
2022-07-25T16:05:44.604Z,19.03
2022-07-25T16:08:12.733Z,19.45
2022-07-25T16:10:40.783Z,19.14
2022-07-25T16:13:08.866Z,18.70
2022-07-25T16:15:36.921Z,19.88
2022-07-25T16:18:05.179Z,19.10
2022-07-25T16:20:35.343Z,19.92
2022-07-25T16:23:03.449Z,18.09
2022-07-25T16:25:56.765Z,19.37
2022-07-25T16:28:24.959Z,19.16
2022-07-25T16:30:53.022Z,20.63
2022-07-25T16:33:21.106Z,19.95
2022-07-25T16:35:50.508Z,20.94
2022-07-25T16:38:18.614Z,19.33
2022-07-25T16:40:46.753Z,20.40
2022-07-25T16:43:15.218Z,20.96
2022-07-25T16:45:43.306Z,20.97
2022-07-25T16:48:11.752Z,20.11
2022-07-25T16:50:40.049Z,21.82
2022-07-25T16:53:09.480Z,22.18
2022-07-25T16:55:37.634Z,21.51
2022-07-25T16:58:05.841Z,22.49
2022-07-25T17:00:34.042Z,22.38
2022-07-25T17:03:02.193Z,22.84
2022-07-25T17:05:30.296Z,22.38
2022-07-25T17:07:59.813Z,22.64
2022-07-25T17:10:29.992Z,22.71
2022-07-25T17:12:58.372Z,23.71
2022-07-25T17:15:26.471Z,23.76
2022-07-25T17:17:54.927Z,24.82
2022-07-25T17:20:23.039Z,24.08
2022-07-25T17:22:51.133Z,25.58
2022-07-25T17:25:19.273Z,25.56
2022-07-25T17:27:48.758Z,25.27
2022-07-25T17:30:16.861Z,26.32
2022-07-25T17:32:45.073Z,25.84
2022-07-25T17:35:13.471Z,26.86
2022-07-25T17:37:41.844Z,26.24
2022-07-25T17:40:11.219Z,27.20
2022-07-25T17:42:44.726Z,29.81
2022-07-25T17:45:15.475Z,32.71
2022-07-25T17:47:44.346Z,33.68
2022-07-25T17:50:12.652Z,34.07
2022-07-25T17:52:40.881Z,34.34
2022-07-25T17:55:09.729Z,34.12
2022-07-25T17:57:37.843Z,34.79
2022-07-25T18:00:07.142Z,35.62
2022-07-25T18:02:41.149Z,36.76
2022-07-25T18:05:10.133Z,38.23
2022-07-25T18:07:40.707Z,39.39
2022-07-25T18:10:09.368Z,39.41
2022-07-25T18:12:37.414Z,39.27
2022-07-25T18:15:07.584Z,40.43
2022-07-25T18:17:36.217Z,40.02
2022-07-25T18:20:06.132Z,40.66
2022-07-25T18:22:34.186Z,41.36
2022-07-25T18:25:02.286Z,40.71
2022-07-25T18:27:30.341Z,39.99
2022-07-25T18:29:58.482Z,40.39
2022-07-25T18:32:26.562Z,40.70
2022-07-25T18:34:54.623Z,40.25
2022-07-25T18:37:24.024Z,41.88
2022-07-25T18:39:52.085Z,40.46
2022-07-25T18:42:20.182Z,40.58
2022-07-25T18:44:48.409Z,39.89
2022-07-25T18:47:16.972Z,41.11
2022-07-25T18:49:45.910Z,41.00
2022-07-25T18:52:13.940Z,40.76
2022-07-25T18:54:43.433Z,40.68
2022-07-25T18:57:11.552Z,40.81
2022-07-25T18:59:39.806Z,40.69
2022-07-25T19:02:07.893Z,40.62
2022-07-25T19:04:36.119Z,40.60
2022-07-25T19:07:04.246Z,40.50
2022-07-25T19:09:32.295Z,40.52
2022-07-25T19:12:02.221Z,40.44
2022-07-25T19:14:30.772Z,40.32
2022-07-25T19:16:59.352Z,39.99
2022-07-25T19:19:27.671Z,42.73
2022-07-25T19:21:55.766Z,44.63
2022-07-25T19:24:24.201Z,46.01
2022-07-25T19:26:52.523Z,43.74
2022-07-25T19:29:21.962Z,42.39
2022-07-25T19:31:50.171Z,42.54
2022-07-25T19:34:18.320Z,42.79
2022-07-25T19:36:46.514Z,42.69
2022-07-25T19:39:14.792Z,43.08
2022-07-25T19:41:46.895Z,44.06
2022-07-25T19:44:15.518Z,43.78
2022-07-25T19:46:45.105Z,44.04
2022-07-25T19:49:13.290Z,43.61
2022-07-25T19:51:41.585Z,44.13
2022-07-25T19:54:10.140Z,44.45
2022-07-25T19:56:38.588Z,44.56
2022-07-25T19:59:06.768Z,43.42
2022-07-25T20:01:36.063Z,43.86
2022-07-25T20:04:09.074Z,44.73
2022-07-25T20:06:37.542Z,44.66
2022-07-25T20:09:06.633Z,43.89
2022-07-25T20:11:34.949Z,43.84
2022-07-25T20:14:03.048Z,43.51
2022-07-25T20:16:31.408Z,44.60
2022-07-25T20:19:00.308Z,43.83
2022-07-25T20:21:29.787Z,43.91
2022-07-25T20:23:58.314Z,44.30
2022-07-25T20:26:26.448Z,45.65
2022-07-25T20:28:55.203Z,46.51
2022-07-25T20:31:24.393Z,45.94
2022-07-25T20:33:52.772Z,46.75
2022-07-25T20:36:20.930Z,46.72
2022-07-25T20:38:50.493Z,47.60
2022-07-25T20:41:18.647Z,47.22
2022-07-25T20:43:47.170Z,46.41
2022-07-25T20:46:15.359Z,46.16
2022-07-25T20:48:43.562Z,46.68
2022-07-25T20:51:13.044Z,46.16
2022-07-25T20:53:41.928Z,45.28
2022-07-25T20:56:11.383Z,45.77
2022-07-25T20:58:40.013Z,46.17
2022-07-25T21:01:08.145Z,46.18
2022-07-25T21:03:36.455Z,45.65
2022-07-25T21:06:04.736Z,46.13
2022-07-25T21:08:32.875Z,46.44
2022-07-25T21:11:01.353Z,46.63
2022-07-25T21:13:32.966Z,47.09
2022-07-25T21:16:01.412Z,47.79
2022-07-25T21:18:29.530Z,47.99
2022-07-25T21:20:57.622Z,48.52
2022-07-25T21:23:26.430Z,48.11
2022-07-25T21:25:54.493Z,48.34
2022-07-25T21:28:22.684Z,48.23
2022-07-25T21:30:52.394Z,48.53
2022-07-25T21:33:20.464Z,50.38
2022-07-25T21:35:53.166Z,58.47
2022-07-25T21:38:26.865Z,63.49
2022-07-25T21:40:56.724Z,68.60
2022-07-25T21:43:25.051Z,70.27
2022-07-25T21:45:54.607Z,71.25
2022-07-25T21:48:42.955Z,71.40
2022-07-25T21:51:10.313Z,70.96
2022-07-25T21:53:47.763Z,71.34
2022-07-25T21:56:16.300Z,70.30
2022-07-25T21:58:44.716Z,72.35
2022-07-25T22:01:14.194Z,72.10
2022-07-25T22:03:42.417Z,71.72
2022-07-25T22:06:11.207Z,70.94
2022-07-25T22:08:39.792Z,72.16
2022-07-25T22:11:16.347Z,71.83
2022-07-25T22:13:55.974Z,74.14
2022-07-25T22:16:25.420Z,74.08
2022-07-25T22:18:53.503Z,74.76
2022-07-25T22:21:45.992Z,73.69
2022-07-25T22:24:14.149Z,73.43
2022-07-25T22:26:42.227Z,72.79
2022-07-25T22:29:10.982Z,74.22
2022-07-25T22:31:40.866Z,73.27
2022-07-25T22:34:09.298Z,73.25
2022-07-25T22:36:37.347Z,73.81
2022-07-25T22:39:06.030Z,74.03
2022-07-25T22:41:34.819Z,74.09
2022-07-25T22:44:02.917Z,74.97
2022-07-25T22:46:32.119Z,77.53
2022-07-25T22:49:02.542Z,76.15
2022-07-25T22:51:30.638Z,75.67
2022-07-25T22:53:59.913Z,76.16
2022-07-25T22:56:28.862Z,75.44
2022-07-25T22:58:57.116Z,75.31
2022-07-25T23:01:25.533Z,76.82
2022-07-25T23:03:53.677Z,79.14
2022-07-25T23:06:23.649Z,78.96
2022-07-25T23:08:51.773Z,79.70
2022-07-25T23:11:19.795Z,78.76
2022-07-25T23:13:47.867Z,79.63
2022-07-25T23:16:16.060Z,79.65
2022-07-25T23:18:44.078Z,79.27
2022-07-25T23:21:12.276Z,81.16
2022-07-25T23:23:41.689Z,81.15
2022-07-25T23:26:09.845Z,80.98
2022-07-25T23:28:38.066Z,80.85
2022-07-25T23:31:06.293Z,80.46
2022-07-25T23:33:34.357Z,81.46
2022-07-25T23:36:02.552Z,81.49
2022-07-25T23:38:30.755Z,81.59
2022-07-25T23:41:00.153Z,81.91
2022-07-25T23:43:53.830Z,81.31
2022-07-25T23:46:16.361Z,82.17
2022-07-25T23:48:46.346Z,81.39
2022-07-25T23:51:16.584Z,81.64
2022-07-25T23:53:44.693Z,81.73
2022-07-25T23:56:20.180Z,82.19
2022-07-25T23:58:50.035Z,81.43
